sensor_id;sensor_type;location;lat;lon;timestamp;P1;durP1;ratioP1;P2;durP2;ratioP2
36551;SDS011;22559;54.176;12.102;2022-12-24T00:01:23;7.40;;;5.20;;
36551;SDS011;22559;54.176;12.102;2022-12-24T00:03:49;5.83;;;4.47;;
36551;SDS011;22559;54.176;12.102;2022-12-24T00:06:15;7.93;;;5.13;;
36551;SDS011;22559;54.176;12.102;2022-12-24T00:08:43;7.67;;;5.10;;
36551;SDS011;22559;54.176;12.102;2022-12-24T00:11:09;7.23;;;4.60;;
36551;SDS011;22559;54.176;12.102;2022-12-24T00:13:34;9.17;;;5.80;;
36551;SDS011;22559;54.176;12.102;2022-12-24T00:16:00;7.63;;;4.70;;
36551;SDS011;22559;54.176;12.102;2022-12-24T00:18:26;6.37;;;4.90;;
36551;SDS011;22559;54.176;12.102;2022-12-24T00:20:52;7.17;;;4.67;;
36551;SDS011;22559;54.176;12.102;2022-12-24T00:23:18;7.00;;;4.90;;
36551;SDS011;22559;54.176;12.102;2022-12-24T00:25:44;10.70;;;5.33;;
36551;SDS011;22559;54.176;12.102;2022-12-24T00:28:10;7.10;;;4.93;;
36551;SDS011;22559;54.176;12.102;2022-12-24T00:30:37;6.90;;;5.60;;
36551;SDS011;22559;54.176;12.102;2022-12-24T00:33:03;9.87;;;4.90;;
36551;SDS011;22559;54.176;12.102;2022-12-24T00:35:29;6.73;;;4.90;;
36551;SDS011;22559;54.176;12.102;2022-12-24T00:37:57;6.73;;;4.90;;
36551;SDS011;22559;54.176;12.102;2022-12-24T00:40:22;7.30;;;5.10;;
36551;SDS011;22559;54.176;12.102;2022-12-24T00:42:48;9.57;;;4.93;;
36551;SDS011;22559;54.176;12.102;2022-12-24T00:45:14;8.63;;;4.33;;
36551;SDS011;22559;54.176;12.102;2022-12-24T00:47:39;8.70;;;4.97;;
36551;SDS011;22559;54.176;12.102;2022-12-24T00:50:05;14.37;;;5.13;;
36551;SDS011;22559;54.176;12.102;2022-12-24T00:52:31;7.43;;;4.90;;
36551;SDS011;22559;54.176;12.102;2022-12-24T00:54:57;7.43;;;4.43;;
36551;SDS011;22559;54.176;12.102;2022-12-24T00:57:23;7.47;;;4.50;;
36551;SDS011;22559;54.176;12.102;2022-12-24T00:59:48;8.33;;;4.53;;
36551;SDS011;22559;54.176;12.102;2022-12-24T01:02:14;7.00;;;4.50;;
36551;SDS011;22559;54.176;12.102;2022-12-24T01:04:39;7.83;;;4.80;;
36551;SDS011;22559;54.176;12.102;2022-12-24T01:07:24;7.97;;;4.27;;
36551;SDS011;22559;54.176;12.102;2022-12-24T01:09:49;4.90;;;4.27;;
36551;SDS011;22559;54.176;12.102;2022-12-24T01:12:15;5.97;;;4.33;;
36551;SDS011;22559;54.176;12.102;2022-12-24T01:14:40;6.00;;;5.10;;
36551;SDS011;22559;54.176;12.102;2022-12-24T01:17:06;8.13;;;4.90;;
36551;SDS011;22559;54.176;12.102;2022-12-24T01:19:32;6.43;;;4.40;;
36551;SDS011;22559;54.176;12.102;2022-12-24T01:21:58;5.20;;;4.33;;
36551;SDS011;22559;54.176;12.102;2022-12-24T01:24:23;5.37;;;3.83;;
36551;SDS011;22559;54.176;12.102;2022-12-24T01:26:49;6.00;;;4.77;;
36551;SDS011;22559;54.176;12.102;2022-12-24T01:29:14;5.10;;;4.60;;
36551;SDS011;22559;54.176;12.102;2022-12-24T01:31:40;4.47;;;4.00;;
36551;SDS011;22559;54.176;12.102;2022-12-24T01:34:06;6.63;;;4.27;;
36551;SDS011;22559;54.176;12.102;2022-12-24T01:36:31;5.57;;;4.13;;
36551;SDS011;22559;54.176;12.102;2022-12-24T01:38:57;8.23;;;4.13;;
36551;SDS011;22559;54.176;12.102;2022-12-24T01:41:23;8.07;;;4.70;;
36551;SDS011;22559;54.176;12.102;2022-12-24T01:44:15;5.63;;;4.00;;
36551;SDS011;22559;54.176;12.102;2022-12-24T01:46:41;6.57;;;4.07;;
36551;SDS011;22559;54.176;12.102;2022-12-24T01:49:07;4.40;;;4.00;;
36551;SDS011;22559;54.176;12.102;2022-12-24T01:51:41;5.67;;;4.77;;
36551;SDS011;22559;54.176;12.102;2022-12-24T01:54:24;4.53;;;4.13;;
36551;SDS011;22559;54.176;12.102;2022-12-24T01:57:01;6.33;;;4.13;;
36551;SDS011;22559;54.176;12.102;2022-12-24T01:59:33;4.37;;;3.97;;
36551;SDS011;22559;54.176;12.102;2022-12-24T02:02:00;5.30;;;4.43;;
36551;SDS011;22559;54.176;12.102;2022-12-24T02:04:36;6.90;;;4.20;;
36551;SDS011;22559;54.176;12.102;2022-12-24T02:07:08;9.23;;;4.33;;
36551;SDS011;22559;54.176;12.102;2022-12-24T02:09:33;6.33;;;4.10;;
36551;SDS011;22559;54.176;12.102;2022-12-24T02:12:00;5.20;;;4.27;;
36551;SDS011;22559;54.176;12.102;2022-12-24T02:14:28;7.37;;;4.00;;
36551;SDS011;22559;54.176;12.102;2022-12-24T02:22:13;5.23;;;4.30;;
36551;SDS011;22559;54.176;12.102;2022-12-24T02:30:37;5.00;;;4.13;;
36551;SDS011;22559;54.176;12.102;2022-12-24T02:33:17;6.63;;;4.10;;
36551;SDS011;22559;54.176;12.102;2022-12-24T02:36:10;6.70;;;4.20;;
36551;SDS011;22559;54.176;12.102;2022-12-24T02:38:45;7.33;;;4.53;;
36551;SDS011;22559;54.176;12.102;2022-12-24T02:41:26;7.67;;;4.50;;
36551;SDS011;22559;54.176;12.102;2022-12-24T02:44:16;9.07;;;4.53;;
36551;SDS011;22559;54.176;12.102;2022-12-24T02:46:44;6.77;;;4.00;;
36551;SDS011;22559;54.176;12.102;2022-12-24T02:49:11;6.77;;;4.13;;
36551;SDS011;22559;54.176;12.102;2022-12-24T02:51:38;4.10;;;3.70;;
36551;SDS011;22559;54.176;12.102;2022-12-24T02:54:03;4.53;;;3.63;;
36551;SDS011;22559;54.176;12.102;2022-12-24T02:56:36;4.57;;;3.60;;
36551;SDS011;22559;54.176;12.102;2022-12-24T02:59:19;7.03;;;4.20;;
36551;SDS011;22559;54.176;12.102;2022-12-24T03:04:33;6.53;;;3.93;;
36551;SDS011;22559;54.176;12.102;2022-12-24T03:07:18;5.17;;;3.97;;
36551;SDS011;22559;54.176;12.102;2022-12-24T03:10:20;7.63;;;4.23;;
36551;SDS011;22559;54.176;12.102;2022-12-24T03:12:55;12.00;;;4.30;;
36551;SDS011;22559;54.176;12.102;2022-12-24T03:15:26;5.50;;;4.10;;
36551;SDS011;22559;54.176;12.102;2022-12-24T03:17:55;6.47;;;4.43;;
36551;SDS011;22559;54.176;12.102;2022-12-24T03:20:24;6.03;;;4.57;;
36551;SDS011;22559;54.176;12.102;2022-12-24T03:22:54;6.97;;;4.47;;
36551;SDS011;22559;54.176;12.102;2022-12-24T03:25:20;6.13;;;4.70;;
36551;SDS011;22559;54.176;12.102;2022-12-24T03:27:49;4.73;;;4.17;;
36551;SDS011;22559;54.176;12.102;2022-12-24T03:30:16;6.57;;;4.30;;
36551;SDS011;22559;54.176;12.102;2022-12-24T03:32:42;5.23;;;3.90;;
36551;SDS011;22559;54.176;12.102;2022-12-24T03:35:08;8.53;;;4.43;;
36551;SDS011;22559;54.176;12.102;2022-12-24T03:37:36;13.33;;;4.70;;
36551;SDS011;22559;54.176;12.102;2022-12-24T03:40:03;11.60;;;4.80;;
36551;SDS011;22559;54.176;12.102;2022-12-24T03:42:29;6.33;;;4.90;;
36551;SDS011;22559;54.176;12.102;2022-12-24T03:44:55;6.93;;;4.60;;
36551;SDS011;22559;54.176;12.102;2022-12-24T03:47:21;5.73;;;4.27;;
36551;SDS011;22559;54.176;12.102;2022-12-24T03:49:47;7.73;;;4.93;;
36551;SDS011;22559;54.176;12.102;2022-12-24T03:52:12;11.30;;;4.90;;
36551;SDS011;22559;54.176;12.102;2022-12-24T03:54:38;7.97;;;4.53;;
36551;SDS011;22559;54.176;12.102;2022-12-24T03:57:03;7.60;;;4.87;;
36551;SDS011;22559;54.176;12.102;2022-12-24T03:59:29;6.83;;;5.50;;
36551;SDS011;22559;54.176;12.102;2022-12-24T04:01:55;6.07;;;5.13;;
36551;SDS011;22559;54.176;12.102;2022-12-24T04:04:20;7.60;;;4.90;;
36551;SDS011;22559;54.176;12.102;2022-12-24T04:06:46;7.07;;;5.00;;
36551;SDS011;22559;54.176;12.102;2022-12-24T04:09:12;11.20;;;4.90;;
36551;SDS011;22559;54.176;12.102;2022-12-24T04:11:37;8.33;;;4.90;;
36551;SDS011;22559;54.176;12.102;2022-12-24T04:14:03;7.97;;;5.87;;
36551;SDS011;22559;54.176;12.102;2022-12-24T04:16:28;8.00;;;4.93;;
36551;SDS011;22559;54.176;12.102;2022-12-24T04:18:54;6.67;;;5.03;;
36551;SDS011;22559;54.176;12.102;2022-12-24T04:21:20;9.80;;;5.07;;
36551;SDS011;22559;54.176;12.102;2022-12-24T04:23:45;8.20;;;5.13;;
36551;SDS011;22559;54.176;12.102;2022-12-24T04:26:12;6.97;;;4.97;;
36551;SDS011;22559;54.176;12.102;2022-12-24T04:28:38;6.30;;;5.00;;
36551;SDS011;22559;54.176;12.102;2022-12-24T04:31:06;8.83;;;5.33;;
36551;SDS011;22559;54.176;12.102;2022-12-24T04:33:34;7.97;;;5.43;;
36551;SDS011;22559;54.176;12.102;2022-12-24T04:36:00;7.23;;;4.90;;
36551;SDS011;22559;54.176;12.102;2022-12-24T04:38:27;11.10;;;5.43;;
36551;SDS011;22559;54.176;12.102;2022-12-24T04:41:02;8.23;;;4.97;;
36551;SDS011;22559;54.176;12.102;2022-12-24T04:43:29;7.77;;;5.83;;
36551;SDS011;22559;54.176;12.102;2022-12-24T04:45:55;7.50;;;5.20;;
36551;SDS011;22559;54.176;12.102;2022-12-24T04:48:28;8.03;;;5.90;;
36551;SDS011;22559;54.176;12.102;2022-12-24T04:50:53;8.20;;;5.50;;
36551;SDS011;22559;54.176;12.102;2022-12-24T04:53:19;6.67;;;4.90;;
36551;SDS011;22559;54.176;12.102;2022-12-24T04:55:45;11.47;;;5.93;;
36551;SDS011;22559;54.176;12.102;2022-12-24T04:58:11;11.07;;;6.10;;
36551;SDS011;22559;54.176;12.102;2022-12-24T05:00:38;8.77;;;5.17;;
36551;SDS011;22559;54.176;12.102;2022-12-24T05:03:04;9.03;;;5.63;;
36551;SDS011;22559;54.176;12.102;2022-12-24T05:05:30;12.67;;;6.37;;
36551;SDS011;22559;54.176;12.102;2022-12-24T05:07:55;8.70;;;5.83;;
36551;SDS011;22559;54.176;12.102;2022-12-24T05:10:21;10.70;;;6.27;;
36551;SDS011;22559;54.176;12.102;2022-12-24T05:12:46;7.27;;;5.63;;
36551;SDS011;22559;54.176;12.102;2022-12-24T05:15:12;10.27;;;5.80;;
36551;SDS011;22559;54.176;12.102;2022-12-24T05:17:38;8.63;;;5.93;;
36551;SDS011;22559;54.176;12.102;2022-12-24T05:20:03;8.80;;;5.80;;
36551;SDS011;22559;54.176;12.102;2022-12-24T05:22:30;9.53;;;5.77;;
36551;SDS011;22559;54.176;12.102;2022-12-24T05:25:15;8.00;;;5.70;;
36551;SDS011;22559;54.176;12.102;2022-12-24T05:28:00;11.27;;;5.63;;
36551;SDS011;22559;54.176;12.102;2022-12-24T05:30:25;6.87;;;5.50;;
36551;SDS011;22559;54.176;12.102;2022-12-24T05:32:51;7.80;;;5.20;;
36551;SDS011;22559;54.176;12.102;2022-12-24T05:35:16;7.67;;;5.37;;
36551;SDS011;22559;54.176;12.102;2022-12-24T05:37:42;8.90;;;5.37;;
36551;SDS011;22559;54.176;12.102;2022-12-24T05:40:08;10.20;;;5.73;;
36551;SDS011;22559;54.176;12.102;2022-12-24T05:42:34;6.70;;;5.07;;
36551;SDS011;22559;54.176;12.102;2022-12-24T05:44:59;6.73;;;5.23;;
36551;SDS011;22559;54.176;12.102;2022-12-24T05:47:25;8.10;;;5.60;;
36551;SDS011;22559;54.176;12.102;2022-12-24T05:49:50;6.73;;;5.30;;
36551;SDS011;22559;54.176;12.102;2022-12-24T05:52:16;8.37;;;5.60;;
36551;SDS011;22559;54.176;12.102;2022-12-24T05:54:42;8.87;;;5.90;;
36551;SDS011;22559;54.176;12.102;2022-12-24T05:57:07;7.43;;;5.13;;
36551;SDS011;22559;54.176;12.102;2022-12-24T05:59:33;6.40;;;5.03;;
36551;SDS011;22559;54.176;12.102;2022-12-24T06:01:59;7.07;;;5.47;;
36551;SDS011;22559;54.176;12.102;2022-12-24T06:04:24;9.07;;;5.53;;
36551;SDS011;22559;54.176;12.102;2022-12-24T06:06:50;6.93;;;5.37;;
36551;SDS011;22559;54.176;12.102;2022-12-24T06:09:16;6.57;;;4.90;;
36551;SDS011;22559;54.176;12.102;2022-12-24T06:11:41;7.20;;;5.13;;
36551;SDS011;22559;54.176;12.102;2022-12-24T06:14:07;8.57;;;5.40;;
36551;SDS011;22559;54.176;12.102;2022-12-24T06:16:33;12.10;;;5.97;;
36551;SDS011;22559;54.176;12.102;2022-12-24T06:18:58;7.37;;;5.13;;
36551;SDS011;22559;54.176;12.102;2022-12-24T06:21:24;6.97;;;5.47;;
36551;SDS011;22559;54.176;12.102;2022-12-24T06:23:50;13.87;;;5.53;;
36551;SDS011;22559;54.176;12.102;2022-12-24T06:26:16;6.83;;;5.27;;
36551;SDS011;22559;54.176;12.102;2022-12-24T06:28:44;9.57;;;5.40;;
36551;SDS011;22559;54.176;12.102;2022-12-24T06:31:12;6.23;;;5.00;;
36551;SDS011;22559;54.176;12.102;2022-12-24T06:33:39;8.30;;;5.03;;
36551;SDS011;22559;54.176;12.102;2022-12-24T06:36:05;7.40;;;4.87;;
36551;SDS011;22559;54.176;12.102;2022-12-24T06:38:32;8.77;;;5.67;;
36551;SDS011;22559;54.176;12.102;2022-12-24T06:40:58;8.13;;;4.60;;
36551;SDS011;22559;54.176;12.102;2022-12-24T06:43:24;5.47;;;4.53;;
36551;SDS011;22559;54.176;12.102;2022-12-24T06:45:50;6.20;;;4.83;;
36551;SDS011;22559;54.176;12.102;2022-12-24T06:48:16;7.53;;;4.30;;
36551;SDS011;22559;54.176;12.102;2022-12-24T06:50:42;5.57;;;4.30;;
36551;SDS011;22559;54.176;12.102;2022-12-24T06:53:08;9.07;;;4.30;;
36551;SDS011;22559;54.176;12.102;2022-12-24T06:55:34;6.07;;;4.50;;
36551;SDS011;22559;54.176;12.102;2022-12-24T06:57:59;6.60;;;4.40;;
36551;SDS011;22559;54.176;12.102;2022-12-24T07:00:25;6.63;;;4.60;;
36551;SDS011;22559;54.176;12.102;2022-12-24T07:02:50;6.27;;;4.17;;
36551;SDS011;22559;54.176;12.102;2022-12-24T07:05:16;4.70;;;4.30;;
36551;SDS011;22559;54.176;12.102;2022-12-24T07:07:42;9.13;;;4.87;;
36551;SDS011;22559;54.176;12.102;2022-12-24T07:10:10;6.50;;;3.90;;
36551;SDS011;22559;54.176;12.102;2022-12-24T07:12:37;7.27;;;4.10;;
36551;SDS011;22559;54.176;12.102;2022-12-24T07:15:03;6.70;;;5.27;;
36551;SDS011;22559;54.176;12.102;2022-12-24T07:17:29;4.40;;;3.93;;
36551;SDS011;22559;54.176;12.102;2022-12-24T07:19:54;6.27;;;4.40;;
36551;SDS011;22559;54.176;12.102;2022-12-24T07:22:20;6.50;;;4.50;;
36551;SDS011;22559;54.176;12.102;2022-12-24T07:24:46;10.60;;;4.97;;
36551;SDS011;22559;54.176;12.102;2022-12-24T07:27:12;5.63;;;4.20;;
36551;SDS011;22559;54.176;12.102;2022-12-24T07:29:37;6.07;;;4.20;;
36551;SDS011;22559;54.176;12.102;2022-12-24T07:32:04;9.40;;;4.23;;
36551;SDS011;22559;54.176;12.102;2022-12-24T07:34:30;5.00;;;4.17;;
36551;SDS011;22559;54.176;12.102;2022-12-24T07:36:55;7.20;;;4.50;;
36551;SDS011;22559;54.176;12.102;2022-12-24T07:39:21;5.60;;;4.30;;
36551;SDS011;22559;54.176;12.102;2022-12-24T07:41:47;5.53;;;4.20;;
36551;SDS011;22559;54.176;12.102;2022-12-24T07:44:14;5.10;;;4.27;;
36551;SDS011;22559;54.176;12.102;2022-12-24T07:46:41;6.67;;;3.80;;
36551;SDS011;22559;54.176;12.102;2022-12-24T07:49:07;6.67;;;4.50;;
36551;SDS011;22559;54.176;12.102;2022-12-24T07:51:32;5.77;;;4.30;;
36551;SDS011;22559;54.176;12.102;2022-12-24T07:53:58;5.77;;;4.33;;
36551;SDS011;22559;54.176;12.102;2022-12-24T07:56:24;4.63;;;4.07;;
36551;SDS011;22559;54.176;12.102;2022-12-24T07:58:50;5.93;;;4.40;;
36551;SDS011;22559;54.176;12.102;2022-12-24T08:01:16;5.87;;;4.03;;
36551;SDS011;22559;54.176;12.102;2022-12-24T08:03:42;5.13;;;3.93;;
36551;SDS011;22559;54.176;12.102;2022-12-24T08:06:09;7.57;;;4.50;;
36551;SDS011;22559;54.176;12.102;2022-12-24T08:08:35;4.50;;;4.10;;
36551;SDS011;22559;54.176;12.102;2022-12-24T08:11:01;6.47;;;4.43;;
36551;SDS011;22559;54.176;12.102;2022-12-24T08:13:30;5.17;;;3.90;;
36551;SDS011;22559;54.176;12.102;2022-12-24T08:15:57;9.20;;;4.63;;
36551;SDS011;22559;54.176;12.102;2022-12-24T08:18:23;6.17;;;4.13;;
36551;SDS011;22559;54.176;12.102;2022-12-24T08:20:48;8.13;;;4.10;;
36551;SDS011;22559;54.176;12.102;2022-12-24T08:23:14;4.90;;;4.40;;
36551;SDS011;22559;54.176;12.102;2022-12-24T08:25:43;8.67;;;4.57;;
36551;SDS011;22559;54.176;12.102;2022-12-24T08:28:10;6.50;;;4.27;;
36551;SDS011;22559;54.176;12.102;2022-12-24T08:30:37;4.33;;;3.93;;
36551;SDS011;22559;54.176;12.102;2022-12-24T08:33:03;5.90;;;4.17;;
36551;SDS011;22559;54.176;12.102;2022-12-24T08:35:29;6.37;;;4.47;;
36551;SDS011;22559;54.176;12.102;2022-12-24T08:37:55;7.17;;;4.20;;
36551;SDS011;22559;54.176;12.102;2022-12-24T08:40:21;7.47;;;3.90;;
36551;SDS011;22559;54.176;12.102;2022-12-24T08:42:46;4.47;;;4.07;;
36551;SDS011;22559;54.176;12.102;2022-12-24T08:45:12;6.63;;;4.17;;
36551;SDS011;22559;54.176;12.102;2022-12-24T08:47:38;9.13;;;4.17;;
36551;SDS011;22559;54.176;12.102;2022-12-24T08:50:04;6.10;;;4.40;;
36551;SDS011;22559;54.176;12.102;2022-12-24T08:52:31;4.67;;;3.70;;
36551;SDS011;22559;54.176;12.102;2022-12-24T08:54:56;4.40;;;4.00;;
36551;SDS011;22559;54.176;12.102;2022-12-24T08:57:22;7.20;;;4.17;;
36551;SDS011;22559;54.176;12.102;2022-12-24T08:59:47;4.80;;;3.90;;
36551;SDS011;22559;54.176;12.102;2022-12-24T09:02:13;5.23;;;4.20;;
36551;SDS011;22559;54.176;12.102;2022-12-24T09:04:39;5.00;;;3.80;;
36551;SDS011;22559;54.176;12.102;2022-12-24T09:07:08;5.50;;;3.53;;
36551;SDS011;22559;54.176;12.102;2022-12-24T09:09:34;5.03;;;3.80;;
36551;SDS011;22559;54.176;12.102;2022-12-24T09:12:01;4.13;;;3.73;;
36551;SDS011;22559;54.176;12.102;2022-12-24T09:14:29;4.13;;;3.43;;
36551;SDS011;22559;54.176;12.102;2022-12-24T09:16:54;5.93;;;3.60;;
36551;SDS011;22559;54.176;12.102;2022-12-24T09:19:20;5.63;;;3.97;;
36551;SDS011;22559;54.176;12.102;2022-12-24T09:21:45;5.70;;;4.23;;
36551;SDS011;22559;54.176;12.102;2022-12-24T09:24:11;8.27;;;4.23;;
36551;SDS011;22559;54.176;12.102;2022-12-24T09:26:39;3.63;;;3.33;;
36551;SDS011;22559;54.176;12.102;2022-12-24T09:29:05;4.03;;;3.33;;
36551;SDS011;22559;54.176;12.102;2022-12-24T09:31:31;5.23;;;3.77;;
36551;SDS011;22559;54.176;12.102;2022-12-24T09:33:57;9.17;;;4.10;;
36551;SDS011;22559;54.176;12.102;2022-12-24T09:36:23;4.20;;;3.80;;
36551;SDS011;22559;54.176;12.102;2022-12-24T09:38:49;6.17;;;4.30;;
36551;SDS011;22559;54.176;12.102;2022-12-24T09:43:47;5.43;;;3.90;;
36551;SDS011;22559;54.176;12.102;2022-12-24T09:46:31;4.03;;;3.63;;
36551;SDS011;22559;54.176;12.102;2022-12-24T09:49:09;7.37;;;3.90;;
36551;SDS011;22559;54.176;12.102;2022-12-24T09:51:43;4.13;;;3.60;;
36551;SDS011;22559;54.176;12.102;2022-12-24T09:54:27;5.33;;;4.00;;
36551;SDS011;22559;54.176;12.102;2022-12-24T09:56:56;7.67;;;3.80;;
36551;SDS011;22559;54.176;12.102;2022-12-24T09:59:38;5.13;;;3.67;;
36551;SDS011;22559;54.176;12.102;2022-12-24T10:02:10;3.87;;;3.47;;
36551;SDS011;22559;54.176;12.102;2022-12-24T10:04:42;4.37;;;3.70;;
36551;SDS011;22559;54.176;12.102;2022-12-24T10:07:22;4.50;;;4.10;;
36551;SDS011;22559;54.176;12.102;2022-12-24T10:15:34;6.03;;;3.43;;
36551;SDS011;22559;54.176;12.102;2022-12-24T10:18:10;3.97;;;3.33;;
36551;SDS011;22559;54.176;12.102;2022-12-24T10:23:27;5.77;;;3.20;;
36551;SDS011;22559;54.176;12.102;2022-12-24T10:28:44;5.87;;;3.60;;
36551;SDS011;22559;54.176;12.102;2022-12-24T10:31:25;4.87;;;3.60;;
36551;SDS011;22559;54.176;12.102;2022-12-24T10:34:02;4.73;;;3.57;;
36551;SDS011;22559;54.176;12.102;2022-12-24T10:36:34;4.20;;;3.80;;
36551;SDS011;22559;54.176;12.102;2022-12-24T10:39:00;3.87;;;3.53;;
36551;SDS011;22559;54.176;12.102;2022-12-24T10:41:26;7.83;;;3.90;;
36551;SDS011;22559;54.176;12.102;2022-12-24T10:43:54;3.90;;;3.60;;
36551;SDS011;22559;54.176;12.102;2022-12-24T10:46:29;5.10;;;3.37;;
36551;SDS011;22559;54.176;12.102;2022-12-24T10:49:01;4.13;;;3.67;;
36551;SDS011;22559;54.176;12.102;2022-12-24T10:56:42;7.40;;;4.10;;
36551;SDS011;22559;54.176;12.102;2022-12-24T10:59:22;5.50;;;3.53;;
36551;SDS011;22559;54.176;12.102;2022-12-24T11:01:52;5.33;;;3.77;;
36551;SDS011;22559;54.176;12.102;2022-12-24T11:04:20;4.60;;;3.47;;
36551;SDS011;22559;54.176;12.102;2022-12-24T11:06:50;6.67;;;3.80;;
36551;SDS011;22559;54.176;12.102;2022-12-24T11:09:19;5.10;;;3.43;;
36551;SDS011;22559;54.176;12.102;2022-12-24T11:11:47;6.93;;;3.43;;
36551;SDS011;22559;54.176;12.102;2022-12-24T11:14:14;5.53;;;3.53;;
36551;SDS011;22559;54.176;12.102;2022-12-24T11:16:47;4.87;;;3.50;;
36551;SDS011;22559;54.176;12.102;2022-12-24T11:19:29;3.67;;;3.20;;
36551;SDS011;22559;54.176;12.102;2022-12-24T11:22:01;5.93;;;3.80;;
36551;SDS011;22559;54.176;12.102;2022-12-24T11:24:31;4.20;;;3.77;;
36551;SDS011;22559;54.176;12.102;2022-12-24T11:32:41;3.90;;;3.43;;
36551;SDS011;22559;54.176;12.102;2022-12-24T11:35:21;3.90;;;3.03;;
36551;SDS011;22559;54.176;12.102;2022-12-24T11:38:10;4.07;;;3.43;;
36551;SDS011;22559;54.176;12.102;2022-12-24T11:40:39;4.80;;;2.93;;
36551;SDS011;22559;54.176;12.102;2022-12-24T11:43:11;3.43;;;3.13;;
36551;SDS011;22559;54.176;12.102;2022-12-24T11:45:49;3.80;;;3.37;;
36551;SDS011;22559;54.176;12.102;2022-12-24T11:50:54;5.73;;;3.33;;
36551;SDS011;22559;54.176;12.102;2022-12-24T11:53:22;5.33;;;3.20;;
36551;SDS011;22559;54.176;12.102;2022-12-24T11:55:55;3.73;;;3.13;;
36551;SDS011;22559;54.176;12.102;2022-12-24T12:01:12;3.30;;;3.00;;
36551;SDS011;22559;54.176;12.102;2022-12-24T12:03:53;4.50;;;3.37;;
36551;SDS011;22559;54.176;12.102;2022-12-24T12:06:55;5.73;;;3.60;;
36551;SDS011;22559;54.176;12.102;2022-12-24T12:12:06;6.27;;;4.90;;
36551;SDS011;22559;54.176;12.102;2022-12-24T12:14:47;4.63;;;4.27;;
36551;SDS011;22559;54.176;12.102;2022-12-24T12:20:12;7.43;;;4.10;;
36551;SDS011;22559;54.176;12.102;2022-12-24T12:22:48;6.07;;;4.17;;
36551;SDS011;22559;54.176;12.102;2022-12-24T12:25:25;4.77;;;3.57;;
36551;SDS011;22559;54.176;12.102;2022-12-24T12:28:05;5.40;;;3.60;;
36551;SDS011;22559;54.176;12.102;2022-12-24T12:30:35;6.67;;;4.47;;
36551;SDS011;22559;54.176;12.102;2022-12-24T12:35:58;8.40;;;4.33;;
36551;SDS011;22559;54.176;12.102;2022-12-24T12:38:26;5.00;;;4.10;;
36551;SDS011;22559;54.176;12.102;2022-12-24T12:52:12;7.67;;;4.70;;
36551;SDS011;22559;54.176;12.102;2022-12-24T12:55:00;5.27;;;3.80;;
36551;SDS011;22559;54.176;12.102;2022-12-24T12:57:40;6.10;;;4.73;;
36551;SDS011;22559;54.176;12.102;2022-12-24T13:00:09;4.83;;;4.33;;
36551;SDS011;22559;54.176;12.102;2022-12-24T13:05:36;6.43;;;4.77;;
36551;SDS011;22559;54.176;12.102;2022-12-24T13:16:54;4.67;;;3.87;;
36551;SDS011;22559;54.176;12.102;2022-12-24T13:19:48;4.87;;;4.00;;
36551;SDS011;22559;54.176;12.102;2022-12-24T13:22:35;4.83;;;4.10;;
36551;SDS011;22559;54.176;12.102;2022-12-24T13:25:01;4.93;;;4.43;;
36551;SDS011;22559;54.176;12.102;2022-12-24T13:27:33;6.23;;;4.30;;
36551;SDS011;22559;54.176;12.102;2022-12-24T13:30:00;5.47;;;4.70;;
36551;SDS011;22559;54.176;12.102;2022-12-24T13:32:38;5.10;;;4.00;;
36551;SDS011;22559;54.176;12.102;2022-12-24T13:37:45;6.17;;;4.57;;
36551;SDS011;22559;54.176;12.102;2022-12-24T13:40:22;5.20;;;4.60;;
36551;SDS011;22559;54.176;12.102;2022-12-24T13:42:57;5.40;;;4.30;;
36551;SDS011;22559;54.176;12.102;2022-12-24T13:53:29;5.73;;;4.77;;
36551;SDS011;22559;54.176;12.102;2022-12-24T13:58:45;7.03;;;4.73;;
36551;SDS011;22559;54.176;12.102;2022-12-24T14:01:22;8.47;;;6.07;;
36551;SDS011;22559;54.176;12.102;2022-12-24T14:03:59;7.80;;;5.23;;
36551;SDS011;22559;54.176;12.102;2022-12-24T14:06:27;7.33;;;5.67;;
36551;SDS011;22559;54.176;12.102;2022-12-24T14:08:56;7.33;;;5.37;;
36551;SDS011;22559;54.176;12.102;2022-12-24T14:12:12;7.50;;;5.17;;
36551;SDS011;22559;54.176;12.102;2022-12-24T14:17:00;6.13;;;5.40;;
36551;SDS011;22559;54.176;12.102;2022-12-24T14:22:45;7.60;;;5.37;;
36551;SDS011;22559;54.176;12.102;2022-12-24T14:32:42;10.50;;;5.77;;
36551;SDS011;22559;54.176;12.102;2022-12-24T14:37:38;9.37;;;5.87;;
36551;SDS011;22559;54.176;12.102;2022-12-24T14:40:06;10.03;;;5.80;;
36551;SDS011;22559;54.176;12.102;2022-12-24T14:45:21;6.73;;;5.63;;
36551;SDS011;22559;54.176;12.102;2022-12-24T14:56:12;10.13;;;6.33;;
36551;SDS011;22559;54.176;12.102;2022-12-24T14:58:39;7.83;;;5.77;;
36551;SDS011;22559;54.176;12.102;2022-12-24T15:01:19;7.73;;;5.87;;
36551;SDS011;22559;54.176;12.102;2022-12-24T15:04:00;6.13;;;4.93;;
36551;SDS011;22559;54.176;12.102;2022-12-24T15:06:36;12.27;;;5.90;;
36551;SDS011;22559;54.176;12.102;2022-12-24T15:09:04;7.23;;;5.53;;
36551;SDS011;22559;54.176;12.102;2022-12-24T15:11:35;8.03;;;5.73;;
36551;SDS011;22559;54.176;12.102;2022-12-24T15:14:01;8.90;;;5.93;;
36551;SDS011;22559;54.176;12.102;2022-12-24T15:16:31;9.03;;;5.50;;
36551;SDS011;22559;54.176;12.102;2022-12-24T15:19:03;7.43;;;6.13;;
36551;SDS011;22559;54.176;12.102;2022-12-24T15:21:50;9.27;;;6.10;;
36551;SDS011;22559;54.176;12.102;2022-12-24T15:24:23;8.73;;;5.63;;
36551;SDS011;22559;54.176;12.102;2022-12-24T15:27:00;6.63;;;5.33;;
36551;SDS011;22559;54.176;12.102;2022-12-24T15:29:38;11.53;;;6.67;;
36551;SDS011;22559;54.176;12.102;2022-12-24T15:32:09;11.83;;;5.70;;
36551;SDS011;22559;54.176;12.102;2022-12-24T15:34:41;11.00;;;6.97;;
36551;SDS011;22559;54.176;12.102;2022-12-24T15:37:28;14.73;;;8.47;;
36551;SDS011;22559;54.176;12.102;2022-12-24T15:42:41;10.63;;;6.10;;
36551;SDS011;22559;54.176;12.102;2022-12-24T15:45:12;8.73;;;5.80;;
36551;SDS011;22559;54.176;12.102;2022-12-24T15:47:45;10.60;;;7.20;;
36551;SDS011;22559;54.176;12.102;2022-12-24T15:52:55;14.13;;;7.93;;
36551;SDS011;22559;54.176;12.102;2022-12-24T15:55:30;8.77;;;6.47;;
36551;SDS011;22559;54.176;12.102;2022-12-24T15:58:15;11.00;;;6.10;;
36551;SDS011;22559;54.176;12.102;2022-12-24T16:01:17;8.63;;;5.80;;
36551;SDS011;22559;54.176;12.102;2022-12-24T16:06:17;12.67;;;6.37;;
36551;SDS011;22559;54.176;12.102;2022-12-24T16:08:44;11.10;;;7.00;;
36551;SDS011;22559;54.176;12.102;2022-12-24T16:16:19;10.67;;;6.70;;
36551;SDS011;22559;54.176;12.102;2022-12-24T16:18:54;12.13;;;8.47;;
36551;SDS011;22559;54.176;12.102;2022-12-24T16:23:53;10.70;;;7.40;;
36551;SDS011;22559;54.176;12.102;2022-12-24T16:26:21;12.47;;;8.77;;
36551;SDS011;22559;54.176;12.102;2022-12-24T16:28:47;12.20;;;7.30;;
36551;SDS011;22559;54.176;12.102;2022-12-24T16:31:17;13.67;;;7.70;;
36551;SDS011;22559;54.176;12.102;2022-12-24T16:33:58;14.83;;;8.10;;
36551;SDS011;22559;54.176;12.102;2022-12-24T16:36:25;14.97;;;8.07;;
36551;SDS011;22559;54.176;12.102;2022-12-24T16:38:51;14.83;;;8.00;;
36551;SDS011;22559;54.176;12.102;2022-12-24T16:41:36;11.47;;;7.70;;
36551;SDS011;22559;54.176;12.102;2022-12-24T16:44:23;11.60;;;7.53;;
36551;SDS011;22559;54.176;12.102;2022-12-24T16:46:48;12.70;;;7.53;;
36551;SDS011;22559;54.176;12.102;2022-12-24T16:49:17;19.43;;;8.30;;
36551;SDS011;22559;54.176;12.102;2022-12-24T16:51:45;16.87;;;8.00;;
36551;SDS011;22559;54.176;12.102;2022-12-24T16:54:11;13.00;;;7.63;;
36551;SDS011;22559;54.176;12.102;2022-12-24T16:56:38;15.47;;;9.13;;
36551;SDS011;22559;54.176;12.102;2022-12-24T16:59:05;23.37;;;9.77;;